sensor_id;sensor_type;location;lat;lon;timestamp;temperature;humidity
19060;DHT22;9663;48.996;8.334;2022-10-16T00:01:23;18.80;75.70
19060;DHT22;9663;48.996;8.334;2022-10-16T00:03:51;18.80;75.70
19060;DHT22;9663;48.996;8.334;2022-10-16T00:06:19;18.80;75.70
19060;DHT22;9663;48.996;8.334;2022-10-16T00:08:47;18.90;75.70
19060;DHT22;9663;48.996;8.334;2022-10-16T00:11:26;18.80;75.70
19060;DHT22;9663;48.996;8.334;2022-10-16T00:13:59;18.80;75.80
19060;DHT22;9663;48.996;8.334;2022-10-16T00:16:28;18.80;75.70
19060;DHT22;9663;48.996;8.334;2022-10-16T00:18:54;18.80;75.70
19060;DHT22;9663;48.996;8.334;2022-10-16T00:21:22;18.80;75.70
19060;DHT22;9663;48.996;8.334;2022-10-16T00:23:51;18.80;75.80
19060;DHT22;9663;48.996;8.334;2022-10-16T00:26:18;18.90;75.80
19060;DHT22;9663;48.996;8.334;2022-10-16T00:28:51;18.80;75.80
19060;DHT22;9663;48.996;8.334;2022-10-16T00:31:19;18.80;75.90
19060;DHT22;9663;48.996;8.334;2022-10-16T00:33:46;18.80;75.80
19060;DHT22;9663;48.996;8.334;2022-10-16T00:36:16;18.80;75.80
19060;DHT22;9663;48.996;8.334;2022-10-16T00:38:43;18.80;75.90
19060;DHT22;9663;48.996;8.334;2022-10-16T00:41:15;18.70;75.80
19060;DHT22;9663;48.996;8.334;2022-10-16T00:43:47;18.80;76.00
19060;DHT22;9663;48.996;8.334;2022-10-16T00:46:50;18.70;76.00
19060;DHT22;9663;48.996;8.334;2022-10-16T00:49:17;18.70;76.30
19060;DHT22;9663;48.996;8.334;2022-10-16T00:51:49;18.70;75.90
19060;DHT22;9663;48.996;8.334;2022-10-16T00:54:19;18.80;76.10
19060;DHT22;9663;48.996;8.334;2022-10-16T00:56:48;18.80;76.00
19060;DHT22;9663;48.996;8.334;2022-10-16T00:59:20;18.80;76.00
19060;DHT22;9663;48.996;8.334;2022-10-16T01:01:50;18.70;76.10
19060;DHT22;9663;48.996;8.334;2022-10-16T01:04:17;18.80;76.00
19060;DHT22;9663;48.996;8.334;2022-10-16T01:12:45;18.70;76.00
19060;DHT22;9663;48.996;8.334;2022-10-16T01:15:33;18.70;76.10
19060;DHT22;9663;48.996;8.334;2022-10-16T01:18:16;18.80;76.10
19060;DHT22;9663;48.996;8.334;2022-10-16T01:20:59;18.80;76.10
19060;DHT22;9663;48.996;8.334;2022-10-16T01:29:35;18.70;76.30
19060;DHT22;9663;48.996;8.334;2022-10-16T01:35:07;18.70;76.40
19060;DHT22;9663;48.996;8.334;2022-10-16T01:41:01;18.80;76.50
19060;DHT22;9663;48.996;8.334;2022-10-16T01:46:28;18.80;76.20
19060;DHT22;9663;48.996;8.334;2022-10-16T01:48:57;18.80;76.10
19060;DHT22;9663;48.996;8.334;2022-10-16T01:51:25;18.80;76.10
19060;DHT22;9663;48.996;8.334;2022-10-16T01:53:55;18.70;76.10
19060;DHT22;9663;48.996;8.334;2022-10-16T01:56:24;18.70;76.10
19060;DHT22;9663;48.996;8.334;2022-10-16T01:59:10;18.80;76.30
19060;DHT22;9663;48.996;8.334;2022-10-16T02:01:41;18.70;76.40
19060;DHT22;9663;48.996;8.334;2022-10-16T02:04:28;18.80;76.20
19060;DHT22;9663;48.996;8.334;2022-10-16T02:06:57;18.70;76.30
19060;DHT22;9663;48.996;8.334;2022-10-16T02:09:23;18.70;76.00
19060;DHT22;9663;48.996;8.334;2022-10-16T02:11:51;18.70;76.00
19060;DHT22;9663;48.996;8.334;2022-10-16T02:14:19;18.60;76.00
19060;DHT22;9663;48.996;8.334;2022-10-16T02:16:47;18.60;76.00
19060;DHT22;9663;48.996;8.334;2022-10-16T02:19:13;18.60;76.00
19060;DHT22;9663;48.996;8.334;2022-10-16T02:21:54;18.60;76.10
19060;DHT22;9663;48.996;8.334;2022-10-16T02:24:32;18.50;76.20
19060;DHT22;9663;48.996;8.334;2022-10-16T02:27:20;18.50;76.10
19060;DHT22;9663;48.996;8.334;2022-10-16T02:30:06;18.50;76.20
19060;DHT22;9663;48.996;8.334;2022-10-16T02:32:42;18.50;76.30
19060;DHT22;9663;48.996;8.334;2022-10-16T02:35:12;18.50;76.20
19060;DHT22;9663;48.996;8.334;2022-10-16T02:37:40;18.40;76.60
19060;DHT22;9663;48.996;8.334;2022-10-16T02:40:07;18.50;76.30
19060;DHT22;9663;48.996;8.334;2022-10-16T02:42:39;18.40;76.30
19060;DHT22;9663;48.996;8.334;2022-10-16T02:45:06;18.30;76.40
19060;DHT22;9663;48.996;8.334;2022-10-16T02:47:34;18.30;76.30
19060;DHT22;9663;48.996;8.334;2022-10-16T02:50:00;18.30;76.40
19060;DHT22;9663;48.996;8.334;2022-10-16T02:52:26;18.30;76.40
19060;DHT22;9663;48.996;8.334;2022-10-16T02:54:52;18.30;76.50
19060;DHT22;9663;48.996;8.334;2022-10-16T02:57:18;18.30;76.50
19060;DHT22;9663;48.996;8.334;2022-10-16T02:59:44;18.30;76.50
19060;DHT22;9663;48.996;8.334;2022-10-16T03:02:10;18.30;76.50
19060;DHT22;9663;48.996;8.334;2022-10-16T03:04:37;18.30;76.50
19060;DHT22;9663;48.996;8.334;2022-10-16T03:07:03;18.30;76.50
19060;DHT22;9663;48.996;8.334;2022-10-16T03:09:29;18.30;76.50
19060;DHT22;9663;48.996;8.334;2022-10-16T03:11:54;18.30;76.50
19060;DHT22;9663;48.996;8.334;2022-10-16T03:14:20;18.30;76.50
19060;DHT22;9663;48.996;8.334;2022-10-16T03:16:46;18.30;76.50
19060;DHT22;9663;48.996;8.334;2022-10-16T03:19:12;18.30;76.60
19060;DHT22;9663;48.996;8.334;2022-10-16T03:21:37;18.30;76.50
19060;DHT22;9663;48.996;8.334;2022-10-16T03:24:03;18.40;76.60
19060;DHT22;9663;48.996;8.334;2022-10-16T03:26:29;18.30;76.60
19060;DHT22;9663;48.996;8.334;2022-10-16T03:28:55;18.20;76.50
19060;DHT22;9663;48.996;8.334;2022-10-16T03:31:21;18.20;76.60
19060;DHT22;9663;48.996;8.334;2022-10-16T03:33:47;18.20;76.60
19060;DHT22;9663;48.996;8.334;2022-10-16T03:36:12;18.20;76.60
19060;DHT22;9663;48.996;8.334;2022-10-16T03:38:38;18.20;76.70
19060;DHT22;9663;48.996;8.334;2022-10-16T03:41:04;18.20;76.70
19060;DHT22;9663;48.996;8.334;2022-10-16T03:43:30;18.20;76.70
19060;DHT22;9663;48.996;8.334;2022-10-16T03:45:55;18.20;76.80
19060;DHT22;9663;48.996;8.334;2022-10-16T03:48:21;18.20;76.80
19060;DHT22;9663;48.996;8.334;2022-10-16T03:50:47;18.20;76.80
19060;DHT22;9663;48.996;8.334;2022-10-16T03:53:14;18.20;76.80
19060;DHT22;9663;48.996;8.334;2022-10-16T03:55:43;18.20;76.80
19060;DHT22;9663;48.996;8.334;2022-10-16T03:58:10;18.20;76.90
19060;DHT22;9663;48.996;8.334;2022-10-16T04:00:39;18.30;76.80
19060;DHT22;9663;48.996;8.334;2022-10-16T04:03:06;18.30;76.90
19060;DHT22;9663;48.996;8.334;2022-10-16T04:05:31;18.30;76.90
19060;DHT22;9663;48.996;8.334;2022-10-16T04:07:57;18.30;76.90
19060;DHT22;9663;48.996;8.334;2022-10-16T04:10:22;18.30;76.90
19060;DHT22;9663;48.996;8.334;2022-10-16T04:12:48;18.30;76.90
19060;DHT22;9663;48.996;8.334;2022-10-16T04:15:14;18.30;76.90
19060;DHT22;9663;48.996;8.334;2022-10-16T04:17:39;18.40;76.90
19060;DHT22;9663;48.996;8.334;2022-10-16T04:20:05;18.40;76.90
19060;DHT22;9663;48.996;8.334;2022-10-16T04:22:31;18.40;76.90
19060;DHT22;9663;48.996;8.334;2022-10-16T04:24:57;18.40;76.90
19060;DHT22;9663;48.996;8.334;2022-10-16T04:27:23;18.30;76.80
19060;DHT22;9663;48.996;8.334;2022-10-16T04:29:48;18.40;76.90
19060;DHT22;9663;48.996;8.334;2022-10-16T04:32:14;18.40;76.90
19060;DHT22;9663;48.996;8.334;2022-10-16T04:34:40;18.40;76.80
19060;DHT22;9663;48.996;8.334;2022-10-16T04:37:05;18.50;76.90
19060;DHT22;9663;48.996;8.334;2022-10-16T04:39:31;18.60;76.90
19060;DHT22;9663;48.996;8.334;2022-10-16T04:41:57;18.50;76.80
19060;DHT22;9663;48.996;8.334;2022-10-16T04:44:23;18.50;76.80
19060;DHT22;9663;48.996;8.334;2022-10-16T04:46:50;18.40;76.80
19060;DHT22;9663;48.996;8.334;2022-10-16T04:49:16;18.40;76.80
19060;DHT22;9663;48.996;8.334;2022-10-16T04:51:42;18.50;76.80
19060;DHT22;9663;48.996;8.334;2022-10-16T04:54:09;18.50;76.90
19060;DHT22;9663;48.996;8.334;2022-10-16T04:56:35;18.40;76.90
19060;DHT22;9663;48.996;8.334;2022-10-16T04:59:08;18.50;76.90
19060;DHT22;9663;48.996;8.334;2022-10-16T05:01:35;18.60;77.00
19060;DHT22;9663;48.996;8.334;2022-10-16T05:04:00;18.50;76.90
19060;DHT22;9663;48.996;8.334;2022-10-16T05:06:26;18.50;76.90
19060;DHT22;9663;48.996;8.334;2022-10-16T05:08:52;18.40;76.80
19060;DHT22;9663;48.996;8.334;2022-10-16T05:11:18;18.50;76.90
19060;DHT22;9663;48.996;8.334;2022-10-16T05:13:44;18.50;76.90
19060;DHT22;9663;48.996;8.334;2022-10-16T05:16:09;19.20;77.30
19060;DHT22;9663;48.996;8.334;2022-10-16T05:18:35;18.40;76.90
19060;DHT22;9663;48.996;8.334;2022-10-16T05:21:01;18.40;76.90
19060;DHT22;9663;48.996;8.334;2022-10-16T05:23:26;18.40;76.80
19060;DHT22;9663;48.996;8.334;2022-10-16T05:25:56;18.60;77.00
19060;DHT22;9663;48.996;8.334;2022-10-16T05:28:25;18.70;77.90
19060;DHT22;9663;48.996;8.334;2022-10-16T05:30:51;18.50;76.90
19060;DHT22;9663;48.996;8.334;2022-10-16T05:33:20;18.50;76.90
19060;DHT22;9663;48.996;8.334;2022-10-16T05:35:46;18.50;76.90
19060;DHT22;9663;48.996;8.334;2022-10-16T05:38:13;18.50;76.90
19060;DHT22;9663;48.996;8.334;2022-10-16T05:40:38;18.50;76.90
19060;DHT22;9663;48.996;8.334;2022-10-16T05:43:04;18.40;76.90
19060;DHT22;9663;48.996;8.334;2022-10-16T05:45:30;18.40;76.90
19060;DHT22;9663;48.996;8.334;2022-10-16T05:47:56;18.40;76.90
19060;DHT22;9663;48.996;8.334;2022-10-16T05:50:21;18.40;76.90
19060;DHT22;9663;48.996;8.334;2022-10-16T05:52:47;18.40;76.90
19060;DHT22;9663;48.996;8.334;2022-10-16T05:55:13;18.40;76.90
19060;DHT22;9663;48.996;8.334;2022-10-16T05:57:39;18.40;76.90
19060;DHT22;9663;48.996;8.334;2022-10-16T06:00:05;18.30;76.80
19060;DHT22;9663;48.996;8.334;2022-10-16T06:02:31;18.40;76.90
19060;DHT22;9663;48.996;8.334;2022-10-16T06:04:57;18.30;76.80
19060;DHT22;9663;48.996;8.334;2022-10-16T06:07:23;18.30;76.90
19060;DHT22;9663;48.996;8.334;2022-10-16T06:09:52;18.30;76.90
19060;DHT22;9663;48.996;8.334;2022-10-16T06:12:19;18.30;77.00
19060;DHT22;9663;48.996;8.334;2022-10-16T06:14:45;18.20;76.90
19060;DHT22;9663;48.996;8.334;2022-10-16T06:17:14;18.30;77.00
19060;DHT22;9663;48.996;8.334;2022-10-16T06:19:40;18.30;77.10
19060;DHT22;9663;48.996;8.334;2022-10-16T06:22:06;18.30;77.10
19060;DHT22;9663;48.996;8.334;2022-10-16T06:24:32;18.30;77.20
19060;DHT22;9663;48.996;8.334;2022-10-16T06:26:58;18.30;77.20
19060;DHT22;9663;48.996;8.334;2022-10-16T06:29:23;18.30;77.20
19060;DHT22;9663;48.996;8.334;2022-10-16T06:31:49;18.30;77.20
19060;DHT22;9663;48.996;8.334;2022-10-16T06:34:15;18.30;77.20
19060;DHT22;9663;48.996;8.334;2022-10-16T06:36:41;18.30;77.20
19060;DHT22;9663;48.996;8.334;2022-10-16T06:39:08;18.40;77.20
19060;DHT22;9663;48.996;8.334;2022-10-16T06:41:34;18.40;77.20
19060;DHT22;9663;48.996;8.334;2022-10-16T06:44:01;18.50;77.30
19060;DHT22;9663;48.996;8.334;2022-10-16T06:46:30;18.40;77.20
19060;DHT22;9663;48.996;8.334;2022-10-16T06:48:55;18.50;77.30
19060;DHT22;9663;48.996;8.334;2022-10-16T06:51:23;18.50;77.30
19060;DHT22;9663;48.996;8.334;2022-10-16T06:53:52;18.50;77.40
19060;DHT22;9663;48.996;8.334;2022-10-16T06:56:24;18.50;77.40
19060;DHT22;9663;48.996;8.334;2022-10-16T06:58:52;18.50;77.40
19060;DHT22;9663;48.996;8.334;2022-10-16T07:01:20;18.60;77.50
19060;DHT22;9663;48.996;8.334;2022-10-16T07:03:49;18.60;77.40
19060;DHT22;9663;48.996;8.334;2022-10-16T07:06:19;18.70;77.40
19060;DHT22;9663;48.996;8.334;2022-10-16T07:08:47;18.70;77.40
19060;DHT22;9663;48.996;8.334;2022-10-16T07:11:20;18.80;77.40
19060;DHT22;9663;48.996;8.334;2022-10-16T07:13:48;18.90;77.60
19060;DHT22;9663;48.996;8.334;2022-10-16T07:16:18;18.90;77.40
19060;DHT22;9663;48.996;8.334;2022-10-16T07:18:47;18.90;77.30
19060;DHT22;9663;48.996;8.334;2022-10-16T07:21:17;19.00;77.20
19060;DHT22;9663;48.996;8.334;2022-10-16T07:23:45;19.00;77.10
19060;DHT22;9663;48.996;8.334;2022-10-16T07:26:13;19.10;77.10
19060;DHT22;9663;48.996;8.334;2022-10-16T07:28:44;19.10;77.10
19060;DHT22;9663;48.996;8.334;2022-10-16T07:31:12;19.30;77.10
19060;DHT22;9663;48.996;8.334;2022-10-16T07:33:43;19.20;76.90
19060;DHT22;9663;48.996;8.334;2022-10-16T07:36:12;19.30;76.80
19060;DHT22;9663;48.996;8.334;2022-10-16T07:38:39;19.40;76.80
19060;DHT22;9663;48.996;8.334;2022-10-16T07:41:08;19.40;76.80
19060;DHT22;9663;48.996;8.334;2022-10-16T07:43:36;19.50;76.90
19060;DHT22;9663;48.996;8.334;2022-10-16T07:46:02;19.60;77.00
19060;DHT22;9663;48.996;8.334;2022-10-16T07:48:31;19.60;77.00
19060;DHT22;9663;48.996;8.334;2022-10-16T07:51:04;19.60;76.80
19060;DHT22;9663;48.996;8.334;2022-10-16T07:53:31;19.80;76.80
19060;DHT22;9663;48.996;8.334;2022-10-16T07:56:03;19.80;76.70
19060;DHT22;9663;48.996;8.334;2022-10-16T07:58:34;19.80;76.50
19060;DHT22;9663;48.996;8.334;2022-10-16T08:01:08;19.90;76.50
19060;DHT22;9663;48.996;8.334;2022-10-16T08:03:35;19.90;76.40
19060;DHT22;9663;48.996;8.334;2022-10-16T08:06:02;19.90;76.30
19060;DHT22;9663;48.996;8.334;2022-10-16T08:08:29;19.90;76.30
19060;DHT22;9663;48.996;8.334;2022-10-16T08:10:55;19.90;76.30
19060;DHT22;9663;48.996;8.334;2022-10-16T08:13:21;20.00;76.50
19060;DHT22;9663;48.996;8.334;2022-10-16T08:15:47;20.10;76.50
19060;DHT22;9663;48.996;8.334;2022-10-16T08:18:14;20.10;76.40
19060;DHT22;9663;48.996;8.334;2022-10-16T08:20:42;20.30;76.50
19060;DHT22;9663;48.996;8.334;2022-10-16T08:23:10;20.30;76.40
19060;DHT22;9663;48.996;8.334;2022-10-16T08:25:37;20.40;76.30
19060;DHT22;9663;48.996;8.334;2022-10-16T08:28:04;20.40;76.20
19060;DHT22;9663;48.996;8.334;2022-10-16T08:30:34;20.50;76.10
19060;DHT22;9663;48.996;8.334;2022-10-16T08:33:01;20.60;75.90
19060;DHT22;9663;48.996;8.334;2022-10-16T08:35:29;20.70;75.80
19060;DHT22;9663;48.996;8.334;2022-10-16T08:37:54;20.70;75.80
19060;DHT22;9663;48.996;8.334;2022-10-16T08:40:26;20.80;76.00
19060;DHT22;9663;48.996;8.334;2022-10-16T08:43:03;20.90;75.80
19060;DHT22;9663;48.996;8.334;2022-10-16T08:46:21;20.90;75.70
19060;DHT22;9663;48.996;8.334;2022-10-16T08:48:59;21.10;75.10
19060;DHT22;9663;48.996;8.334;2022-10-16T08:51:32;21.20;75.20
19060;DHT22;9663;48.996;8.334;2022-10-16T08:57:07;21.30;74.70
19060;DHT22;9663;48.996;8.334;2022-10-16T08:59:36;21.40;74.90
19060;DHT22;9663;48.996;8.334;2022-10-16T09:02:02;21.50;75.00
19060;DHT22;9663;48.996;8.334;2022-10-16T09:04:55;21.50;74.90
19060;DHT22;9663;48.996;8.334;2022-10-16T09:07:45;21.60;74.20
19060;DHT22;9663;48.996;8.334;2022-10-16T09:10:36;21.70;74.00
19060;DHT22;9663;48.996;8.334;2022-10-16T09:16:11;21.70;73.70
19060;DHT22;9663;48.996;8.334;2022-10-16T09:21:36;21.80;73.50
19060;DHT22;9663;48.996;8.334;2022-10-16T09:24:16;21.70;73.50
19060;DHT22;9663;48.996;8.334;2022-10-16T09:26:44;21.70;73.40
19060;DHT22;9663;48.996;8.334;2022-10-16T09:29:18;21.70;73.50
19060;DHT22;9663;48.996;8.334;2022-10-16T09:31:47;21.70;73.30
19060;DHT22;9663;48.996;8.334;2022-10-16T09:34:34;21.60;73.40
19060;DHT22;9663;48.996;8.334;2022-10-16T09:37:09;21.60;73.30
19060;DHT22;9663;48.996;8.334;2022-10-16T09:39:48;21.70;73.80
19060;DHT22;9663;48.996;8.334;2022-10-16T09:42:30;21.70;74.60
19060;DHT22;9663;48.996;8.334;2022-10-16T09:44:58;21.80;74.00
19060;DHT22;9663;48.996;8.334;2022-10-16T09:47:28;21.90;74.50
19060;DHT22;9663;48.996;8.334;2022-10-16T09:49:57;22.00;74.50
19060;DHT22;9663;48.996;8.334;2022-10-16T09:52:29;22.20;74.50
19060;DHT22;9663;48.996;8.334;2022-10-16T09:55:02;22.40;73.90
19060;DHT22;9663;48.996;8.334;2022-10-16T09:57:49;22.60;73.50
19060;DHT22;9663;48.996;8.334;2022-10-16T10:00:32;22.60;72.80
19060;DHT22;9663;48.996;8.334;2022-10-16T10:03:35;22.80;72.50
19060;DHT22;9663;48.996;8.334;2022-10-16T10:06:25;22.90;72.50
19060;DHT22;9663;48.996;8.334;2022-10-16T10:11:59;23.00;72.70
19060;DHT22;9663;48.996;8.334;2022-10-16T10:14:44;23.20;71.50
19060;DHT22;9663;48.996;8.334;2022-10-16T10:19:57;23.30;72.30
19060;DHT22;9663;48.996;8.334;2022-10-16T10:27:50;23.50;71.20
19060;DHT22;9663;48.996;8.334;2022-10-16T10:39:05;23.80;71.50
19060;DHT22;9663;48.996;8.334;2022-10-16T10:41:53;24.00;71.90
19060;DHT22;9663;48.996;8.334;2022-10-16T10:56:56;24.90;70.00
19060;DHT22;9663;48.996;8.334;2022-10-16T11:02:34;25.00;68.60
19060;DHT22;9663;48.996;8.334;2022-10-16T11:08:19;25.00;68.30
19060;DHT22;9663;48.996;8.334;2022-10-16T11:11:05;25.10;69.40
19060;DHT22;9663;48.996;8.334;2022-10-16T11:20:03;25.50;67.50
19060;DHT22;9663;48.996;8.334;2022-10-16T11:22:40;25.70;67.70
19060;DHT22;9663;48.996;8.334;2022-10-16T11:30:30;26.10;67.10
19060;DHT22;9663;48.996;8.334;2022-10-16T11:36:23;26.20;66.70
19060;DHT22;9663;48.996;8.334;2022-10-16T11:47:45;26.30;65.60
19060;DHT22;9663;48.996;8.334;2022-10-16T11:53:04;26.40;66.70
19060;DHT22;9663;48.996;8.334;2022-10-16T11:55:49;26.60;65.80
19060;DHT22;9663;48.996;8.334;2022-10-16T11:58:22;26.90;68.00
19060;DHT22;9663;48.996;8.334;2022-10-16T12:00:59;27.40;66.70
19060;DHT22;9663;48.996;8.334;2022-10-16T12:04:14;27.70;66.20
19060;DHT22;9663;48.996;8.334;2022-10-16T12:07:05;27.90;63.50
19060;DHT22;9663;48.996;8.334;2022-10-16T12:09:38;28.00;63.50
19060;DHT22;9663;48.996;8.334;2022-10-16T12:15:25;27.80;62.50
19060;DHT22;9663;48.996;8.334;2022-10-16T12:17:53;27.70;62.00
19060;DHT22;9663;48.996;8.334;2022-10-16T12:20:23;27.60;63.30
19060;DHT22;9663;48.996;8.334;2022-10-16T12:23:06;27.50;63.00
19060;DHT22;9663;48.996;8.334;2022-10-16T12:25:36;27.40;63.50
19060;DHT22;9663;48.996;8.334;2022-10-16T12:28:19;27.40;63.30
19060;DHT22;9663;48.996;8.334;2022-10-16T12:30:55;27.20;61.90
19060;DHT22;9663;48.996;8.334;2022-10-16T12:33:26;27.10;62.00
19060;DHT22;9663;48.996;8.334;2022-10-16T12:35:53;27.10;62.90
19060;DHT22;9663;48.996;8.334;2022-10-16T12:38:48;27.10;63.30
19060;DHT22;9663;48.996;8.334;2022-10-16T12:41:31;27.00;62.10
19060;DHT22;9663;48.996;8.334;2022-10-16T12:44:00;26.90;61.80
19060;DHT22;9663;48.996;8.334;2022-10-16T12:49:06;26.70;62.40
19060;DHT22;9663;48.996;8.334;2022-10-16T12:51:47;26.60;62.10
19060;DHT22;9663;48.996;8.334;2022-10-16T13:08:33;26.00;62.10
19060;DHT22;9663;48.996;8.334;2022-10-16T13:11:29;25.80;61.40
19060;DHT22;9663;48.996;8.334;2022-10-16T13:20:25;25.40;62.80
19060;DHT22;9663;48.996;8.334;2022-10-16T13:23:03;25.10;62.10
19060;DHT22;9663;48.996;8.334;2022-10-16T13:28:33;25.00;62.90
19060;DHT22;9663;48.996;8.334;2022-10-16T13:31:01;24.90;63.70
19060;DHT22;9663;48.996;8.334;2022-10-16T13:33:40;24.90;63.60
19060;DHT22;9663;48.996;8.334;2022-10-16T13:36:29;24.80;63.40
19060;DHT22;9663;48.996;8.334;2022-10-16T13:39:25;24.70;63.20
19060;DHT22;9663;48.996;8.334;2022-10-16T13:42:04;24.70;63.20
19060;DHT22;9663;48.996;8.334;2022-10-16T13:44:39;24.60;63.20
19060;DHT22;9663;48.996;8.334;2022-10-16T13:47:22;24.50;63.60
19060;DHT22;9663;48.996;8.334;2022-10-16T13:50:13;24.50;63.50
19060;DHT22;9663;48.996;8.334;2022-10-16T13:52:44;24.50;63.70
19060;DHT22;9663;48.996;8.334;2022-10-16T13:55:14;24.40;64.30
19060;DHT22;9663;48.996;8.334;2022-10-16T13:57:41;24.30;64.30
19060;DHT22;9663;48.996;8.334;2022-10-16T14:00:23;23.80;64.00
19060;DHT22;9663;48.996;8.334;2022-10-16T14:02:58;24.10;63.80
19060;DHT22;9663;48.996;8.334;2022-10-16T14:05:28;24.10;64.20
19060;DHT22;9663;48.996;8.334;2022-10-16T14:07:55;24.10;64.70
19060;DHT22;9663;48.996;8.334;2022-10-16T14:10:29;24.00;64.70
19060;DHT22;9663;48.996;8.334;2022-10-16T14:13:02;24.00;64.50
19060;DHT22;9663;48.996;8.334;2022-10-16T14:15:31;23.90;64.80
19060;DHT22;9663;48.996;8.334;2022-10-16T14:17:59;23.90;65.00
19060;DHT22;9663;48.996;8.334;2022-10-16T14:20:32;23.90;65.40
19060;DHT22;9663;48.996;8.334;2022-10-16T14:23:23;24.00;65.70
19060;DHT22;9663;48.996;8.334;2022-10-16T14:26:06;24.00;65.80
19060;DHT22;9663;48.996;8.334;2022-10-16T14:28:38;24.20;66.30
19060;DHT22;9663;48.996;8.334;2022-10-16T14:31:34;24.40;66.60
19060;DHT22;9663;48.996;8.334;2022-10-16T14:34:02;24.70;66.00
19060;DHT22;9663;48.996;8.334;2022-10-16T14:36:29;24.90;66.40
19060;DHT22;9663;48.996;8.334;2022-10-16T14:39:05;25.30;66.40
19060;DHT22;9663;48.996;8.334;2022-10-16T14:41:46;25.60;66.00
19060;DHT22;9663;48.996;8.334;2022-10-16T14:44:14;26.20;67.30
19060;DHT22;9663;48.996;8.334;2022-10-16T14:46:43;26.90;67.20
19060;DHT22;9663;48.996;8.334;2022-10-16T14:51:37;28.10;65.40
19060;DHT22;9663;48.996;8.334;2022-10-16T14:54:08;28.40;64.00
19060;DHT22;9663;48.996;8.334;2022-10-16T14:56:56;28.90;63.90
19060;DHT22;9663;48.996;8.334;2022-10-16T14:59:35;29.10;61.10
19060;DHT22;9663;48.996;8.334;2022-10-16T15:04:48;29.30;59.20
19060;DHT22;9663;48.996;8.334;2022-10-16T15:07:14;29.10;59.60
19060;DHT22;9663;48.996;8.334;2022-10-16T15:09:40;28.90;59.30
19060;DHT22;9663;48.996;8.334;2022-10-16T15:12:06;28.70;59.20
19060;DHT22;9663;48.996;8.334;2022-10-16T15:14:31;28.40;59.20
19060;DHT22;9663;48.996;8.334;2022-10-16T15:16:57;28.20;59.30
19060;DHT22;9663;48.996;8.334;2022-10-16T15:19:23;27.80;59.30
19060;DHT22;9663;48.996;8.334;2022-10-16T15:21:49;27.70;59.60
19060;DHT22;9663;48.996;8.334;2022-10-16T15:24:15;27.50;59.80
19060;DHT22;9663;48.996;8.334;2022-10-16T15:26:41;27.20;59.80
19060;DHT22;9663;48.996;8.334;2022-10-16T15:29:07;27.00;60.10
19060;DHT22;9663;48.996;8.334;2022-10-16T15:31:33;26.80;60.40
19060;DHT22;9663;48.996;8.334;2022-10-16T15:33:59;26.60;60.50
19060;DHT22;9663;48.996;8.334;2022-10-16T15:36:32;26.50;60.60
19060;DHT22;9663;48.996;8.334;2022-10-16T15:39:05;26.30;60.70
19060;DHT22;9663;48.996;8.334;2022-10-16T15:41:37;26.20;60.80
19060;DHT22;9663;48.996;8.334;2022-10-16T15:44:03;26.00;61.00
19060;DHT22;9663;48.996;8.334;2022-10-16T15:46:29;25.80;61.10
19060;DHT22;9663;48.996;8.334;2022-10-16T15:48:57;25.70;61.30
19060;DHT22;9663;48.996;8.334;2022-10-16T15:51:24;25.60;61.60
19060;DHT22;9663;48.996;8.334;2022-10-16T15:53:52;25.40;61.70
19060;DHT22;9663;48.996;8.334;2022-10-16T15:56:19;25.30;61.90
19060;DHT22;9663;48.996;8.334;2022-10-16T15:58:45;25.20;61.90
19060;DHT22;9663;48.996;8.334;2022-10-16T16:01:11;25.20;62.00
19060;DHT22;9663;48.996;8.334;2022-10-16T16:03:38;25.10;61.90
19060;DHT22;9663;48.996;8.334;2022-10-16T16:06:09;25.00;61.90
19060;DHT22;9663;48.996;8.334;2022-10-16T16:08:37;25.00;62.10
19060;DHT22;9663;48.996;8.334;2022-10-16T16:11:05;24.90;62.10
19060;DHT22;9663;48.996;8.334;2022-10-16T16:13:32;24.80;62.20
19060;DHT22;9663;48.996;8.334;2022-10-16T16:15:59;24.70;62.10
19060;DHT22;9663;48.996;8.334;2022-10-16T16:18:24;24.60;62.10
19060;DHT22;9663;48.996;8.334;2022-10-16T16:20:52;24.50;62.20
19060;DHT22;9663;48.996;8.334;2022-10-16T16:23:18;24.30;62.30
19060;DHT22;9663;48.996;8.334;2022-10-16T16:25:45;24.10;62.20
19060;DHT22;9663;48.996;8.334;2022-10-16T16:28:26;23.90;62.30
19060;DHT22;9663;48.996;8.334;2022-10-16T16:30:52;23.80;62.50
19060;DHT22;9663;48.996;8.334;2022-10-16T16:33:18;23.60;62.70
19060;DHT22;9663;48.996;8.334;2022-10-16T16:35:43;23.40;62.80
19060;DHT22;9663;48.996;8.334;2022-10-16T16:38:09;23.30;62.90
19060;DHT22;9663;48.996;8.334;2022-10-16T16:40:35;23.20;63.20
19060;DHT22;9663;48.996;8.334;2022-10-16T16:43:00;23.00;63.30
19060;DHT22;9663;48.996;8.334;2022-10-16T16:45:26;22.80;63.40
19060;DHT22;9663;48.996;8.334;2022-10-16T16:47:51;22.80;63.70
19060;DHT22;9663;48.996;8.334;2022-10-16T16:50:17;22.60;63.80
19060;DHT22;9663;48.996;8.334;2022-10-16T16:52:43;22.50;64.00
19060;DHT22;9663;48.996;8.334;2022-10-16T16:55:08;22.40;64.20
19060;DHT22;9663;48.996;8.334;2022-10-16T16:57:34;22.20;64.30
19060;DHT22;9663;48.996;8.334;2022-10-16T16:59:59;22.10;64.30
19060;DHT22;9663;48.996;8.334;2022-10-16T17:02:25;22.10;64.60
19060;DHT22;9663;48.996;8.334;2022-10-16T17:04:51;21.90;64.60
19060;DHT22;9663;48.996;8.334;2022-10-16T17:07:17;21.80;64.70
19060;DHT22;9663;48.996;8.334;2022-10-16T17:09:42;21.70;64.90
19060;DHT22;9663;48.996;8.334;2022-10-16T17:12:08;21.60;65.10
19060;DHT22;9663;48.996;8.334;2022-10-16T17:14:34;21.50;65.20
19060;DHT22;9663;48.996;8.334;2022-10-16T17:16:59;21.50;65.50
19060;DHT22;9663;48.996;8.334;2022-10-16T17:19:25;21.40;65.60
19060;DHT22;9663;48.996;8.334;2022-10-16T17:21:51;21.30;65.70
19060;DHT22;9663;48.996;8.334;2022-10-16T17:24:17;21.20;65.80
19060;DHT22;9663;48.996;8.334;2022-10-16T17:26:44;21.20;66.00
19060;DHT22;9663;48.996;8.334;2022-10-16T17:29:13;21.10;66.10
19060;DHT22;9663;48.996;8.334;2022-10-16T17:31:40;21.10;66.20
19060;DHT22;9663;48.996;8.334;2022-10-16T17:34:07;21.10;66.20
19060;DHT22;9663;48.996;8.334;2022-10-16T17:36:36;20.90;66.20
19060;DHT22;9663;48.996;8.334;2022-10-16T17:39:05;20.80;66.30
19060;DHT22;9663;48.996;8.334;2022-10-16T17:41:34;20.90;66.50
19060;DHT22;9663;48.996;8.334;2022-10-16T17:44:00;20.80;66.60
19060;DHT22;9663;48.996;8.334;2022-10-16T17:46:26;20.70;66.60
19060;DHT22;9663;48.996;8.334;2022-10-16T17:48:53;20.70;66.70
19060;DHT22;9663;48.996;8.334;2022-10-16T17:51:22;20.60;66.80
19060;DHT22;9663;48.996;8.334;2022-10-16T17:53:56;20.50;66.90
19060;DHT22;9663;48.996;8.334;2022-10-16T17:56:24;20.50;67.20
19060;DHT22;9663;48.996;8.334;2022-10-16T17:58:52;20.40;67.20
19060;DHT22;9663;48.996;8.334;2022-10-16T18:01:26;20.50;67.30
19060;DHT22;9663;48.996;8.334;2022-10-16T18:04:00;20.30;67.50
19060;DHT22;9663;48.996;8.334;2022-10-16T18:06:32;20.30;67.70
19060;DHT22;9663;48.996;8.334;2022-10-16T18:08:59;20.20;67.40
19060;DHT22;9663;48.996;8.334;2022-10-16T18:11:25;20.20;67.40
19060;DHT22;9663;48.996;8.334;2022-10-16T18:13:53;20.20;67.60
19060;DHT22;9663;48.996;8.334;2022-10-16T18:16:20;20.10;67.50